sensor_id;sensor_type;location;lat;lon;timestamp;P1;durP1;ratioP1;P2;durP2;ratioP2
36629;SDS011;36256;42.154;23.002;2022-12-18T00:01:16;25.67;;;16.58;;
36629;SDS011;36256;42.154;23.002;2022-12-18T00:03:47;30.42;;;19.70;;
36629;SDS011;36256;42.154;23.002;2022-12-18T00:06:15;29.52;;;19.70;;
36629;SDS011;36256;42.154;23.002;2022-12-18T00:08:42;28.13;;;18.60;;
36629;SDS011;36256;42.154;23.002;2022-12-18T00:11:11;25.95;;;16.02;;
36629;SDS011;36256;42.154;23.002;2022-12-18T00:13:39;26.38;;;16.55;;
36629;SDS011;36256;42.154;23.002;2022-12-18T00:16:08;22.08;;;15.30;;
36629;SDS011;36256;42.154;23.002;2022-12-18T00:18:37;25.90;;;15.93;;
36629;SDS011;36256;42.154;23.002;2022-12-18T00:21:06;15.48;;;10.40;;
36629;SDS011;36256;42.154;23.002;2022-12-18T00:23:34;19.73;;;11.45;;
36629;SDS011;36256;42.154;23.002;2022-12-18T00:26:03;16.77;;;10.95;;
36629;SDS011;36256;42.154;23.002;2022-12-18T00:28:32;20.67;;;11.30;;
36629;SDS011;36256;42.154;23.002;2022-12-18T00:31:06;16.60;;;10.55;;
36629;SDS011;36256;42.154;23.002;2022-12-18T00:33:35;15.98;;;9.30;;
36629;SDS011;36256;42.154;23.002;2022-12-18T00:36:07;16.40;;;10.65;;
36629;SDS011;36256;42.154;23.002;2022-12-18T00:38:39;14.45;;;8.90;;
36629;SDS011;36256;42.154;23.002;2022-12-18T00:41:07;12.75;;;9.02;;
36629;SDS011;36256;42.154;23.002;2022-12-18T00:43:35;32.55;;;17.70;;
36629;SDS011;36256;42.154;23.002;2022-12-18T00:46:03;38.88;;;20.70;;
36629;SDS011;36256;42.154;23.002;2022-12-18T00:48:31;20.02;;;12.98;;
36629;SDS011;36256;42.154;23.002;2022-12-18T00:50:58;17.60;;;11.90;;
36629;SDS011;36256;42.154;23.002;2022-12-18T00:53:24;20.13;;;9.80;;
36629;SDS011;36256;42.154;23.002;2022-12-18T00:55:51;26.03;;;17.07;;
36629;SDS011;36256;42.154;23.002;2022-12-18T00:58:18;28.55;;;16.83;;
36629;SDS011;36256;42.154;23.002;2022-12-18T01:00:45;18.02;;;11.85;;
36629;SDS011;36256;42.154;23.002;2022-12-18T01:03:14;18.35;;;12.82;;
36629;SDS011;36256;42.154;23.002;2022-12-18T01:05:41;15.93;;;9.57;;
36629;SDS011;36256;42.154;23.002;2022-12-18T01:08:08;13.88;;;8.45;;
36629;SDS011;36256;42.154;23.002;2022-12-18T01:10:35;16.92;;;9.43;;
36629;SDS011;36256;42.154;23.002;2022-12-18T01:13:01;13.27;;;9.27;;
36629;SDS011;36256;42.154;23.002;2022-12-18T01:15:28;18.10;;;9.15;;
36629;SDS011;36256;42.154;23.002;2022-12-18T01:17:55;11.93;;;8.60;;
36629;SDS011;36256;42.154;23.002;2022-12-18T01:20:21;14.67;;;9.57;;
36629;SDS011;36256;42.154;23.002;2022-12-18T01:22:48;14.63;;;9.00;;
36629;SDS011;36256;42.154;23.002;2022-12-18T01:25:14;14.50;;;9.05;;
36629;SDS011;36256;42.154;23.002;2022-12-18T01:27:41;18.38;;;10.02;;
36629;SDS011;36256;42.154;23.002;2022-12-18T01:30:08;12.38;;;9.10;;
36629;SDS011;36256;42.154;23.002;2022-12-18T01:32:35;14.80;;;10.70;;
36629;SDS011;36256;42.154;23.002;2022-12-18T01:35:01;13.30;;;8.73;;
36629;SDS011;36256;42.154;23.002;2022-12-18T01:37:28;16.02;;;8.23;;
36629;SDS011;36256;42.154;23.002;2022-12-18T01:39:55;15.90;;;9.80;;
36629;SDS011;36256;42.154;23.002;2022-12-18T01:42:22;13.93;;;9.27;;
36629;SDS011;36256;42.154;23.002;2022-12-18T01:47:43;12.35;;;8.02;;
36629;SDS011;36256;42.154;23.002;2022-12-18T01:50:14;12.73;;;8.52;;
36629;SDS011;36256;42.154;23.002;2022-12-18T01:52:47;17.17;;;9.13;;
36629;SDS011;36256;42.154;23.002;2022-12-18T01:55:18;18.67;;;14.65;;
36629;SDS011;36256;42.154;23.002;2022-12-18T01:57:48;15.30;;;10.57;;
36629;SDS011;36256;42.154;23.002;2022-12-18T02:00:19;12.10;;;8.75;;
36629;SDS011;36256;42.154;23.002;2022-12-18T02:02:47;12.13;;;7.57;;
36629;SDS011;36256;42.154;23.002;2022-12-18T02:05:26;10.35;;;6.10;;
36629;SDS011;36256;42.154;23.002;2022-12-18T02:08:05;9.98;;;7.82;;
36629;SDS011;36256;42.154;23.002;2022-12-18T02:15:52;11.73;;;8.10;;
36629;SDS011;36256;42.154;23.002;2022-12-18T02:18:35;11.65;;;8.63;;
36629;SDS011;36256;42.154;23.002;2022-12-18T02:21:25;14.02;;;8.48;;
36629;SDS011;36256;42.154;23.002;2022-12-18T02:27:08;9.77;;;6.38;;
36629;SDS011;36256;42.154;23.002;2022-12-18T02:29:42;7.63;;;5.50;;
36629;SDS011;36256;42.154;23.002;2022-12-18T02:32:24;5.78;;;4.63;;
36629;SDS011;36256;42.154;23.002;2022-12-18T02:34:54;6.63;;;4.35;;
36629;SDS011;36256;42.154;23.002;2022-12-18T02:37:23;8.77;;;5.28;;
36629;SDS011;36256;42.154;23.002;2022-12-18T02:39:53;10.05;;;7.30;;
36629;SDS011;36256;42.154;23.002;2022-12-18T02:42:23;8.82;;;4.40;;
36629;SDS011;36256;42.154;23.002;2022-12-18T02:57:55;4.50;;;3.47;;
36629;SDS011;36256;42.154;23.002;2022-12-18T03:00:28;4.68;;;3.55;;
36629;SDS011;36256;42.154;23.002;2022-12-18T03:05:41;4.32;;;3.40;;
36629;SDS011;36256;42.154;23.002;2022-12-18T03:08:27;8.48;;;3.60;;
36629;SDS011;36256;42.154;23.002;2022-12-18T03:11:03;5.00;;;4.10;;
36629;SDS011;36256;42.154;23.002;2022-12-18T03:13:45;4.95;;;3.65;;
36629;SDS011;36256;42.154;23.002;2022-12-18T03:16:19;4.45;;;3.28;;
36629;SDS011;36256;42.154;23.002;2022-12-18T03:18:53;5.75;;;3.55;;
36629;SDS011;36256;42.154;23.002;2022-12-18T03:21:26;6.28;;;3.70;;
36629;SDS011;36256;42.154;23.002;2022-12-18T03:24:01;4.63;;;3.95;;
36629;SDS011;36256;42.154;23.002;2022-12-18T03:26:30;5.45;;;4.30;;
36629;SDS011;36256;42.154;23.002;2022-12-18T03:29:06;4.72;;;3.70;;
36629;SDS011;36256;42.154;23.002;2022-12-18T03:31:47;8.43;;;4.07;;
36629;SDS011;36256;42.154;23.002;2022-12-18T03:34:19;6.90;;;3.67;;
36629;SDS011;36256;42.154;23.002;2022-12-18T03:36:52;8.90;;;4.05;;
36629;SDS011;36256;42.154;23.002;2022-12-18T03:39:19;13.32;;;5.20;;
36629;SDS011;36256;42.154;23.002;2022-12-18T03:42:09;10.68;;;3.88;;
36629;SDS011;36256;42.154;23.002;2022-12-18T03:44:48;5.90;;;3.78;;
36629;SDS011;36256;42.154;23.002;2022-12-18T03:50:12;5.93;;;4.18;;
36629;SDS011;36256;42.154;23.002;2022-12-18T03:52:46;5.72;;;4.43;;
36629;SDS011;36256;42.154;23.002;2022-12-18T03:55:14;5.70;;;4.40;;
36629;SDS011;36256;42.154;23.002;2022-12-18T04:00:10;4.40;;;4.00;;
36629;SDS011;36256;42.154;23.002;2022-12-18T04:02:41;6.90;;;4.43;;
36629;SDS011;36256;42.154;23.002;2022-12-18T04:05:11;6.07;;;4.32;;
36629;SDS011;36256;42.154;23.002;2022-12-18T04:07:40;5.70;;;4.35;;
36629;SDS011;36256;42.154;23.002;2022-12-18T04:10:08;5.43;;;3.92;;
36629;SDS011;36256;42.154;23.002;2022-12-18T04:12:38;4.85;;;3.70;;
36629;SDS011;36256;42.154;23.002;2022-12-18T04:15:05;4.35;;;3.60;;
36629;SDS011;36256;42.154;23.002;2022-12-18T04:19:58;5.22;;;3.80;;
36629;SDS011;36256;42.154;23.002;2022-12-18T04:22:25;4.73;;;3.73;;
36629;SDS011;36256;42.154;23.002;2022-12-18T04:24:52;8.63;;;5.83;;
36629;SDS011;36256;42.154;23.002;2022-12-18T04:27:18;5.87;;;4.60;;
36629;SDS011;36256;42.154;23.002;2022-12-18T04:29:45;5.10;;;4.03;;
36629;SDS011;36256;42.154;23.002;2022-12-18T04:32:11;5.20;;;3.67;;
36629;SDS011;36256;42.154;23.002;2022-12-18T04:34:38;7.17;;;3.90;;
36629;SDS011;36256;42.154;23.002;2022-12-18T04:37:04;6.83;;;3.90;;
36629;SDS011;36256;42.154;23.002;2022-12-18T04:39:31;7.90;;;4.43;;
36629;SDS011;36256;42.154;23.002;2022-12-18T04:42:01;5.88;;;4.05;;
36629;SDS011;36256;42.154;23.002;2022-12-18T04:44:27;7.60;;;5.63;;
36629;SDS011;36256;42.154;23.002;2022-12-18T04:46:54;6.13;;;4.72;;
36629;SDS011;36256;42.154;23.002;2022-12-18T04:49:22;5.97;;;4.38;;
36629;SDS011;36256;42.154;23.002;2022-12-18T04:51:48;6.17;;;4.40;;
36629;SDS011;36256;42.154;23.002;2022-12-18T04:54:15;5.17;;;4.23;;
36629;SDS011;36256;42.154;23.002;2022-12-18T04:56:41;8.60;;;3.47;;
36629;SDS011;36256;42.154;23.002;2022-12-18T04:59:08;5.17;;;3.77;;
36629;SDS011;36256;42.154;23.002;2022-12-18T05:01:34;4.83;;;3.83;;
36629;SDS011;36256;42.154;23.002;2022-12-18T05:04:01;5.00;;;4.03;;
36629;SDS011;36256;42.154;23.002;2022-12-18T05:06:28;5.30;;;3.13;;
36629;SDS011;36256;42.154;23.002;2022-12-18T05:08:55;4.72;;;3.63;;
36629;SDS011;36256;42.154;23.002;2022-12-18T05:11:22;4.80;;;3.30;;
36629;SDS011;36256;42.154;23.002;2022-12-18T05:13:49;6.07;;;4.15;;
36629;SDS011;36256;42.154;23.002;2022-12-18T05:16:15;5.40;;;3.55;;
36629;SDS011;36256;42.154;23.002;2022-12-18T05:18:42;5.75;;;3.70;;
36629;SDS011;36256;42.154;23.002;2022-12-18T05:21:09;6.13;;;3.67;;
36629;SDS011;36256;42.154;23.002;2022-12-18T05:23:35;4.03;;;3.20;;
36629;SDS011;36256;42.154;23.002;2022-12-18T05:26:04;6.38;;;3.72;;
36629;SDS011;36256;42.154;23.002;2022-12-18T05:28:32;4.97;;;3.65;;
36629;SDS011;36256;42.154;23.002;2022-12-18T05:31:01;5.55;;;3.70;;
36629;SDS011;36256;42.154;23.002;2022-12-18T05:33:30;4.18;;;3.30;;
36629;SDS011;36256;42.154;23.002;2022-12-18T05:35:59;8.55;;;3.70;;
36629;SDS011;36256;42.154;23.002;2022-12-18T05:38:30;7.93;;;4.00;;
36629;SDS011;36256;42.154;23.002;2022-12-18T05:40:58;5.43;;;3.60;;
36629;SDS011;36256;42.154;23.002;2022-12-18T05:43:25;4.75;;;3.17;;
36629;SDS011;36256;42.154;23.002;2022-12-18T05:45:53;5.82;;;3.17;;
36629;SDS011;36256;42.154;23.002;2022-12-18T05:50:48;7.43;;;3.45;;
36629;SDS011;36256;42.154;23.002;2022-12-18T05:53:17;7.32;;;3.17;;
36629;SDS011;36256;42.154;23.002;2022-12-18T05:55:45;3.67;;;2.92;;
36629;SDS011;36256;42.154;23.002;2022-12-18T05:58:14;4.10;;;3.05;;
36629;SDS011;36256;42.154;23.002;2022-12-18T06:00:44;5.90;;;2.75;;
36629;SDS011;36256;42.154;23.002;2022-12-18T06:03:12;5.18;;;3.38;;
36629;SDS011;36256;42.154;23.002;2022-12-18T06:05:44;6.20;;;3.50;;
36629;SDS011;36256;42.154;23.002;2022-12-18T06:08:11;5.72;;;3.63;;
36629;SDS011;36256;42.154;23.002;2022-12-18T06:10:39;5.03;;;3.65;;
36629;SDS011;36256;42.154;23.002;2022-12-18T06:13:07;5.03;;;3.35;;
36629;SDS011;36256;42.154;23.002;2022-12-18T06:15:36;3.97;;;3.03;;
36629;SDS011;36256;42.154;23.002;2022-12-18T06:18:02;4.47;;;3.50;;
36629;SDS011;36256;42.154;23.002;2022-12-18T06:20:32;5.88;;;4.53;;
36629;SDS011;36256;42.154;23.002;2022-12-18T06:22:59;5.10;;;3.30;;
36629;SDS011;36256;42.154;23.002;2022-12-18T06:25:26;3.65;;;3.13;;
36629;SDS011;36256;42.154;23.002;2022-12-18T06:27:53;4.43;;;3.20;;
36629;SDS011;36256;42.154;23.002;2022-12-18T06:30:19;4.10;;;3.57;;
36629;SDS011;36256;42.154;23.002;2022-12-18T06:32:47;4.95;;;3.58;;
36629;SDS011;36256;42.154;23.002;2022-12-18T06:35:21;3.45;;;2.78;;
36629;SDS011;36256;42.154;23.002;2022-12-18T06:37:48;7.68;;;5.22;;
36629;SDS011;36256;42.154;23.002;2022-12-18T06:40:14;4.32;;;3.50;;
36629;SDS011;36256;42.154;23.002;2022-12-18T06:42:41;4.32;;;3.42;;
36629;SDS011;36256;42.154;23.002;2022-12-18T06:45:08;5.68;;;4.05;;
36629;SDS011;36256;42.154;23.002;2022-12-18T06:47:35;6.25;;;3.63;;
36629;SDS011;36256;42.154;23.002;2022-12-18T06:50:02;4.97;;;3.40;;
36629;SDS011;36256;42.154;23.002;2022-12-18T06:52:31;6.30;;;3.30;;
36629;SDS011;36256;42.154;23.002;2022-12-18T06:54:58;4.97;;;3.55;;
36629;SDS011;36256;42.154;23.002;2022-12-18T06:57:24;4.80;;;3.43;;
36629;SDS011;36256;42.154;23.002;2022-12-18T06:59:51;5.27;;;3.90;;
36629;SDS011;36256;42.154;23.002;2022-12-18T07:02:17;7.47;;;4.75;;
36629;SDS011;36256;42.154;23.002;2022-12-18T07:04:44;6.32;;;3.55;;
36629;SDS011;36256;42.154;23.002;2022-12-18T07:07:11;4.78;;;3.67;;
36629;SDS011;36256;42.154;23.002;2022-12-18T07:09:37;5.57;;;3.90;;
36629;SDS011;36256;42.154;23.002;2022-12-18T07:12:04;4.50;;;3.50;;
36629;SDS011;36256;42.154;23.002;2022-12-18T07:14:31;6.10;;;3.90;;
36629;SDS011;36256;42.154;23.002;2022-12-18T07:16:57;4.67;;;3.50;;
36629;SDS011;36256;42.154;23.002;2022-12-18T07:19:25;5.35;;;4.40;;
36629;SDS011;36256;42.154;23.002;2022-12-18T07:21:51;3.08;;;2.60;;
36629;SDS011;36256;42.154;23.002;2022-12-18T07:24:18;5.20;;;3.90;;
36629;SDS011;36256;42.154;23.002;2022-12-18T07:26:48;4.00;;;3.30;;
36629;SDS011;36256;42.154;23.002;2022-12-18T07:29:14;4.88;;;3.78;;
36629;SDS011;36256;42.154;23.002;2022-12-18T07:31:41;4.45;;;3.40;;
36629;SDS011;36256;42.154;23.002;2022-12-18T07:34:11;2.97;;;2.55;;
36629;SDS011;36256;42.154;23.002;2022-12-18T07:36:39;5.65;;;3.97;;
36629;SDS011;36256;42.154;23.002;2022-12-18T07:39:05;4.63;;;3.67;;
36629;SDS011;36256;42.154;23.002;2022-12-18T07:41:32;7.15;;;4.60;;
36629;SDS011;36256;42.154;23.002;2022-12-18T07:43:59;10.05;;;6.80;;
36629;SDS011;36256;42.154;23.002;2022-12-18T07:46:25;8.07;;;5.45;;
36629;SDS011;36256;42.154;23.002;2022-12-18T07:48:52;8.83;;;5.60;;
36629;SDS011;36256;42.154;23.002;2022-12-18T07:51:18;5.85;;;4.03;;
36629;SDS011;36256;42.154;23.002;2022-12-18T07:53:45;6.68;;;4.68;;
36629;SDS011;36256;42.154;23.002;2022-12-18T07:56:17;8.38;;;4.80;;
36629;SDS011;36256;42.154;23.002;2022-12-18T07:58:53;5.43;;;4.30;;
36629;SDS011;36256;42.154;23.002;2022-12-18T08:01:20;7.30;;;5.85;;
36629;SDS011;36256;42.154;23.002;2022-12-18T08:03:47;7.18;;;4.90;;
36629;SDS011;36256;42.154;23.002;2022-12-18T08:06:15;5.28;;;4.30;;
36629;SDS011;36256;42.154;23.002;2022-12-18T08:08:41;4.90;;;4.22;;
36629;SDS011;36256;42.154;23.002;2022-12-18T08:11:08;9.32;;;5.05;;
36629;SDS011;36256;42.154;23.002;2022-12-18T08:13:35;6.50;;;4.60;;
36629;SDS011;36256;42.154;23.002;2022-12-18T08:16:04;9.73;;;4.95;;
36629;SDS011;36256;42.154;23.002;2022-12-18T08:18:33;7.38;;;5.03;;
36629;SDS011;36256;42.154;23.002;2022-12-18T08:23:36;7.03;;;5.00;;
36629;SDS011;36256;42.154;23.002;2022-12-18T08:26:08;20.55;;;10.18;;
36629;SDS011;36256;42.154;23.002;2022-12-18T08:28:35;13.13;;;7.28;;
36629;SDS011;36256;42.154;23.002;2022-12-18T08:31:02;7.05;;;4.90;;
36629;SDS011;36256;42.154;23.002;2022-12-18T08:33:29;14.88;;;8.68;;
36629;SDS011;36256;42.154;23.002;2022-12-18T08:35:57;6.47;;;5.05;;
36629;SDS011;36256;42.154;23.002;2022-12-18T08:38:25;7.32;;;5.35;;
36629;SDS011;36256;42.154;23.002;2022-12-18T08:41:10;7.88;;;4.90;;
36629;SDS011;36256;42.154;23.002;2022-12-18T08:43:38;8.63;;;5.22;;
36629;SDS011;36256;42.154;23.002;2022-12-18T08:46:25;6.72;;;4.57;;
36629;SDS011;36256;42.154;23.002;2022-12-18T08:48:53;7.05;;;4.82;;
36629;SDS011;36256;42.154;23.002;2022-12-18T08:51:22;7.20;;;4.78;;
36629;SDS011;36256;42.154;23.002;2022-12-18T08:53:49;7.28;;;4.57;;
36629;SDS011;36256;42.154;23.002;2022-12-18T08:56:15;6.45;;;4.65;;
36629;SDS011;36256;42.154;23.002;2022-12-18T08:58:42;7.97;;;4.80;;
36629;SDS011;36256;42.154;23.002;2022-12-18T09:01:10;7.70;;;5.10;;
36629;SDS011;36256;42.154;23.002;2022-12-18T09:03:38;7.00;;;4.80;;
36629;SDS011;36256;42.154;23.002;2022-12-18T09:06:06;6.80;;;5.07;;
36629;SDS011;36256;42.154;23.002;2022-12-18T09:08:36;6.80;;;5.18;;
36629;SDS011;36256;42.154;23.002;2022-12-18T09:11:03;7.05;;;4.63;;
36629;SDS011;36256;42.154;23.002;2022-12-18T09:13:30;6.88;;;5.03;;
36629;SDS011;36256;42.154;23.002;2022-12-18T09:15:57;9.25;;;6.75;;
36629;SDS011;36256;42.154;23.002;2022-12-18T09:18:24;8.75;;;5.20;;
36629;SDS011;36256;42.154;23.002;2022-12-18T09:23:19;7.30;;;5.22;;
36629;SDS011;36256;42.154;23.002;2022-12-18T09:25:46;8.07;;;4.93;;
36629;SDS011;36256;42.154;23.002;2022-12-18T09:28:16;6.90;;;4.95;;
36629;SDS011;36256;42.154;23.002;2022-12-18T09:30:48;7.38;;;5.22;;
36629;SDS011;36256;42.154;23.002;2022-12-18T09:33:16;7.80;;;5.68;;
36629;SDS011;36256;42.154;23.002;2022-12-18T09:35:44;7.30;;;5.07;;
36629;SDS011;36256;42.154;23.002;2022-12-18T09:38:12;7.53;;;5.18;;
36629;SDS011;36256;42.154;23.002;2022-12-18T09:40:42;8.55;;;4.72;;
36629;SDS011;36256;42.154;23.002;2022-12-18T09:43:28;7.65;;;5.72;;
36629;SDS011;36256;42.154;23.002;2022-12-18T09:46:05;8.05;;;5.10;;
36629;SDS011;36256;42.154;23.002;2022-12-18T09:48:35;9.23;;;6.25;;
36629;SDS011;36256;42.154;23.002;2022-12-18T09:51:20;7.78;;;5.57;;
36629;SDS011;36256;42.154;23.002;2022-12-18T09:53:52;19.92;;;7.95;;
36629;SDS011;36256;42.154;23.002;2022-12-18T09:56:23;18.83;;;8.43;;
36629;SDS011;36256;42.154;23.002;2022-12-18T09:59:01;7.85;;;5.80;;
36629;SDS011;36256;42.154;23.002;2022-12-18T10:01:31;8.70;;;5.63;;
36629;SDS011;36256;42.154;23.002;2022-12-18T10:04:09;7.85;;;5.45;;
36629;SDS011;36256;42.154;23.002;2022-12-18T10:06:39;12.30;;;5.82;;
36629;SDS011;36256;42.154;23.002;2022-12-18T10:12:32;6.40;;;4.85;;
36629;SDS011;36256;42.154;23.002;2022-12-18T10:15:19;6.32;;;4.80;;
36629;SDS011;36256;42.154;23.002;2022-12-18T10:20:34;13.70;;;5.10;;
36629;SDS011;36256;42.154;23.002;2022-12-18T10:23:27;7.78;;;5.35;;
36629;SDS011;36256;42.154;23.002;2022-12-18T10:26:13;8.88;;;5.65;;
36629;SDS011;36256;42.154;23.002;2022-12-18T10:28:41;7.68;;;5.45;;
36629;SDS011;36256;42.154;23.002;2022-12-18T10:31:16;8.60;;;5.90;;
36629;SDS011;36256;42.154;23.002;2022-12-18T10:33:45;6.97;;;5.18;;
36629;SDS011;36256;42.154;23.002;2022-12-18T10:36:12;10.93;;;6.38;;
36629;SDS011;36256;42.154;23.002;2022-12-18T10:41:22;11.52;;;6.40;;
36629;SDS011;36256;42.154;23.002;2022-12-18T10:46:43;8.43;;;5.60;;
36629;SDS011;36256;42.154;23.002;2022-12-18T10:49:22;8.05;;;5.35;;
36629;SDS011;36256;42.154;23.002;2022-12-18T10:51:51;20.63;;;6.93;;
36629;SDS011;36256;42.154;23.002;2022-12-18T10:54:46;12.38;;;8.10;;
36629;SDS011;36256;42.154;23.002;2022-12-18T11:00:03;8.85;;;5.65;;
36629;SDS011;36256;42.154;23.002;2022-12-18T11:02:55;9.23;;;6.20;;
36629;SDS011;36256;42.154;23.002;2022-12-18T11:07:58;8.07;;;5.22;;
36629;SDS011;36256;42.154;23.002;2022-12-18T11:10:28;10.68;;;6.40;;
36629;SDS011;36256;42.154;23.002;2022-12-18T11:13:12;9.13;;;5.97;;
36629;SDS011;36256;42.154;23.002;2022-12-18T11:15:47;9.85;;;5.53;;
36629;SDS011;36256;42.154;23.002;2022-12-18T11:18:33;8.60;;;6.40;;
36629;SDS011;36256;42.154;23.002;2022-12-18T11:23:31;11.10;;;6.32;;
36629;SDS011;36256;42.154;23.002;2022-12-18T11:25:59;10.57;;;5.80;;
36629;SDS011;36256;42.154;23.002;2022-12-18T11:33:50;12.57;;;8.02;;
36629;SDS011;36256;42.154;23.002;2022-12-18T11:36:43;14.18;;;8.30;;
36629;SDS011;36256;42.154;23.002;2022-12-18T11:39:22;11.48;;;6.70;;
36629;SDS011;36256;42.154;23.002;2022-12-18T11:42:08;12.05;;;6.78;;
36629;SDS011;36256;42.154;23.002;2022-12-18T11:47:21;9.52;;;6.10;;
36629;SDS011;36256;42.154;23.002;2022-12-18T11:50:19;9.77;;;6.85;;
36629;SDS011;36256;42.154;23.002;2022-12-18T11:52:49;10.68;;;6.47;;
36629;SDS011;36256;42.154;23.002;2022-12-18T11:55:33;9.23;;;6.07;;
36629;SDS011;36256;42.154;23.002;2022-12-18T12:09:39;11.98;;;7.93;;
36629;SDS011;36256;42.154;23.002;2022-12-18T12:15:01;13.75;;;8.88;;
36629;SDS011;36256;42.154;23.002;2022-12-18T12:18:05;12.50;;;8.85;;
36629;SDS011;36256;42.154;23.002;2022-12-18T12:23:54;18.02;;;9.55;;
36629;SDS011;36256;42.154;23.002;2022-12-18T12:31:55;12.38;;;8.00;;
36629;SDS011;36256;42.154;23.002;2022-12-18T12:37:33;16.10;;;8.90;;
36629;SDS011;36256;42.154;23.002;2022-12-18T12:40:34;13.35;;;8.80;;
36629;SDS011;36256;42.154;23.002;2022-12-18T12:46:11;16.83;;;8.18;;
36629;SDS011;36256;42.154;23.002;2022-12-18T12:48:47;11.70;;;7.70;;
36629;SDS011;36256;42.154;23.002;2022-12-18T12:51:24;11.98;;;8.07;;
36629;SDS011;36256;42.154;23.002;2022-12-18T12:53:51;14.90;;;8.88;;
36629;SDS011;36256;42.154;23.002;2022-12-18T12:56:20;13.98;;;8.98;;
36629;SDS011;36256;42.154;23.002;2022-12-18T13:04:24;14.75;;;8.77;;
36629;SDS011;36256;42.154;23.002;2022-12-18T13:07:01;13.38;;;8.73;;
36629;SDS011;36256;42.154;23.002;2022-12-18T13:10:11;16.80;;;9.05;;
36629;SDS011;36256;42.154;23.002;2022-12-18T13:15:25;13.02;;;8.30;;
36629;SDS011;36256;42.154;23.002;2022-12-18T13:18:02;13.73;;;8.43;;
36629;SDS011;36256;42.154;23.002;2022-12-18T13:20:36;15.65;;;9.70;;
36629;SDS011;36256;42.154;23.002;2022-12-18T13:28:49;12.88;;;8.60;;
36629;SDS011;36256;42.154;23.002;2022-12-18T13:34:20;15.63;;;9.23;;
36629;SDS011;36256;42.154;23.002;2022-12-18T13:36:52;14.07;;;8.80;;
36629;SDS011;36256;42.154;23.002;2022-12-18T13:39:22;14.90;;;8.73;;
36629;SDS011;36256;42.154;23.002;2022-12-18T13:47:51;15.02;;;9.77;;
36629;SDS011;36256;42.154;23.002;2022-12-18T13:52:24;12.68;;;8.57;;
36629;SDS011;36256;42.154;23.002;2022-12-18T13:54:55;13.77;;;8.95;;
36629;SDS011;36256;42.154;23.002;2022-12-18T13:57:28;14.73;;;8.85;;
36629;SDS011;36256;42.154;23.002;2022-12-18T13:59:57;19.30;;;10.93;;
36629;SDS011;36256;42.154;23.002;2022-12-18T14:02:25;14.43;;;9.25;;
36629;SDS011;36256;42.154;23.002;2022-12-18T14:04:54;14.95;;;9.13;;
36629;SDS011;36256;42.154;23.002;2022-12-18T14:09:55;15.75;;;9.05;;
36629;SDS011;36256;42.154;23.002;2022-12-18T14:12:46;13.43;;;8.93;;
36629;SDS011;36256;42.154;23.002;2022-12-18T14:15:40;13.82;;;8.45;;
36629;SDS011;36256;42.154;23.002;2022-12-18T14:21:06;12.90;;;8.43;;
36629;SDS011;36256;42.154;23.002;2022-12-18T14:23:43;14.65;;;8.88;;
36629;SDS011;36256;42.154;23.002;2022-12-18T14:26:24;13.40;;;8.80;;
36629;SDS011;36256;42.154;23.002;2022-12-18T14:29:00;13.50;;;8.90;;
36629;SDS011;36256;42.154;23.002;2022-12-18T14:31:44;15.57;;;9.65;;
36629;SDS011;36256;42.154;23.002;2022-12-18T14:34:16;19.43;;;10.23;;
36629;SDS011;36256;42.154;23.002;2022-12-18T14:36:51;18.10;;;11.68;;
36629;SDS011;36256;42.154;23.002;2022-12-18T14:39:19;15.40;;;9.35;;
36629;SDS011;36256;42.154;23.002;2022-12-18T14:41:48;12.70;;;8.57;;
36629;SDS011;36256;42.154;23.002;2022-12-18T14:44:15;12.95;;;8.15;;
36629;SDS011;36256;42.154;23.002;2022-12-18T14:46:43;14.33;;;9.13;;
36629;SDS011;36256;42.154;23.002;2022-12-18T14:49:33;14.32;;;8.82;;
36629;SDS011;36256;42.154;23.002;2022-12-18T14:52:05;14.95;;;8.57;;
36629;SDS011;36256;42.154;23.002;2022-12-18T14:54:45;19.83;;;9.02;;
36629;SDS011;36256;42.154;23.002;2022-12-18T14:57:25;21.42;;;9.77;;
36629;SDS011;36256;42.154;23.002;2022-12-18T15:00:15;18.95;;;11.10;;
36629;SDS011;36256;42.154;23.002;2022-12-18T15:02:51;13.82;;;8.35;;
36629;SDS011;36256;42.154;23.002;2022-12-18T15:05:29;14.43;;;8.95;;
36629;SDS011;36256;42.154;23.002;2022-12-18T15:07:58;22.42;;;8.40;;
36629;SDS011;36256;42.154;23.002;2022-12-18T15:10:29;12.73;;;8.52;;
36629;SDS011;36256;42.154;23.002;2022-12-18T15:20:42;14.50;;;8.23;;
36629;SDS011;36256;42.154;23.002;2022-12-18T15:25:49;13.30;;;8.50;;
36629;SDS011;36256;42.154;23.002;2022-12-18T15:33:42;15.07;;;10.25;;
36629;SDS011;36256;42.154;23.002;2022-12-18T15:36:30;17.83;;;9.40;;
36629;SDS011;36256;42.154;23.002;2022-12-18T15:38:57;13.10;;;8.50;;
36629;SDS011;36256;42.154;23.002;2022-12-18T15:41:32;15.23;;;8.90;;
36629;SDS011;36256;42.154;23.002;2022-12-18T15:44:01;12.40;;;8.25;;
36629;SDS011;36256;42.154;23.002;2022-12-18T15:46:29;12.85;;;8.18;;
36629;SDS011;36256;42.154;23.002;2022-12-18T15:48:57;16.63;;;8.13;;
36629;SDS011;36256;42.154;23.002;2022-12-18T15:51:35;13.68;;;8.95;;
36629;SDS011;36256;42.154;23.002;2022-12-18T15:54:03;13.40;;;8.50;;
36629;SDS011;36256;42.154;23.002;2022-12-18T15:56:35;14.30;;;9.23;;
36629;SDS011;36256;42.154;23.002;2022-12-18T15:59:20;16.77;;;10.50;;
36629;SDS011;36256;42.154;23.002;2022-12-18T16:01:48;15.88;;;9.50;;
36629;SDS011;36256;42.154;23.002;2022-12-18T16:04:17;17.65;;;11.68;;
36629;SDS011;36256;42.154;23.002;2022-12-18T16:06:48;13.68;;;8.63;;
36629;SDS011;36256;42.154;23.002;2022-12-18T16:12:03;13.63;;;8.40;;
36629;SDS011;36256;42.154;23.002;2022-12-18T16:19:27;29.17;;;15.63;;
36629;SDS011;36256;42.154;23.002;2022-12-18T16:21:55;22.33;;;13.82;;
36629;SDS011;36256;42.154;23.002;2022-12-18T16:24:24;20.73;;;13.52;;
36629;SDS011;36256;42.154;23.002;2022-12-18T16:26:53;16.13;;;9.88;;
36629;SDS011;36256;42.154;23.002;2022-12-18T16:31:53;14.00;;;8.35;;
36629;SDS011;36256;42.154;23.002;2022-12-18T16:34:28;12.38;;;7.57;;
36629;SDS011;36256;42.154;23.002;2022-12-18T16:37:01;12.82;;;7.47;;
36629;SDS011;36256;42.154;23.002;2022-12-18T16:39:34;11.88;;;7.28;;
36629;SDS011;36256;42.154;23.002;2022-12-18T16:42:02;11.68;;;7.00;;
36629;SDS011;36256;42.154;23.002;2022-12-18T16:44:35;11.25;;;7.68;;
36629;SDS011;36256;42.154;23.002;2022-12-18T16:47:02;11.52;;;7.20;;
36629;SDS011;36256;42.154;23.002;2022-12-18T16:49:30;12.93;;;7.10;;
36629;SDS011;36256;42.154;23.002;2022-12-18T16:51:57;10.80;;;6.70;;
36629;SDS011;36256;42.154;23.002;2022-12-18T16:54:23;11.43;;;7.28;;
36629;SDS011;36256;42.154;23.002;2022-12-18T16:56:50;11.20;;;6.90;;
36629;SDS011;36256;42.154;23.002;2022-12-18T16:59:17;10.02;;;6.60;;
36629;SDS011;36256;42.154;23.002;2022-12-18T17:04:12;12.30;;;7.10;;
36629;SDS011;36256;42.154;23.002;2022-12-18T17:06:39;9.77;;;6.45;;
36629;SDS011;36256;42.154;23.002;2022-12-18T17:09:12;11.40;;;7.03;;
36629;SDS011;36256;42.154;23.002;2022-12-18T17:11:40;11.85;;;6.97;;
36629;SDS011;36256;42.154;23.002;2022-12-18T17:16:36;10.38;;;6.65;;
36629;SDS011;36256;42.154;23.002;2022-12-18T17:19:05;10.05;;;6.85;;
36629;SDS011;36256;42.154;23.002;2022-12-18T17:21:37;13.80;;;7.25;;
36629;SDS011;36256;42.154;23.002;2022-12-18T17:24:05;10.68;;;6.82;;
36629;SDS011;36256;42.154;23.002;2022-12-18T17:26:32;11.35;;;6.85;;
36629;SDS011;36256;42.154;23.002;2022-12-18T17:28:59;10.63;;;6.80;;